sensor_id;sensor_type;location;lat;lon;timestamp;temperature;humidity
2300;DHT22;1158;48.750;9.078;2023-05-13T00:02:23;9.90;99.90
2300;DHT22;1158;48.750;9.078;2023-05-13T00:04:49;10.00;99.90
2300;DHT22;1158;48.750;9.078;2023-05-13T00:07:17;10.00;99.90
2300;DHT22;1158;48.750;9.078;2023-05-13T00:09:44;10.00;99.90
2300;DHT22;1158;48.750;9.078;2023-05-13T00:12:11;10.00;99.90
2300;DHT22;1158;48.750;9.078;2023-05-13T00:14:37;10.00;99.90
2300;DHT22;1158;48.750;9.078;2023-05-13T00:17:04;10.10;99.90
2300;DHT22;1158;48.750;9.078;2023-05-13T00:19:31;10.00;99.90
2300;DHT22;1158;48.750;9.078;2023-05-13T00:21:57;10.10;99.90
2300;DHT22;1158;48.750;9.078;2023-05-13T00:24:26;10.00;99.90
2300;DHT22;1158;48.750;9.078;2023-05-13T00:26:52;10.00;99.90
2300;DHT22;1158;48.750;9.078;2023-05-13T00:29:19;10.00;99.90
2300;DHT22;1158;48.750;9.078;2023-05-13T00:31:46;10.00;99.90
2300;DHT22;1158;48.750;9.078;2023-05-13T00:34:13;10.00;99.90
2300;DHT22;1158;48.750;9.078;2023-05-13T00:36:39;10.00;99.90
2300;DHT22;1158;48.750;9.078;2023-05-13T00:39:06;10.00;99.90
2300;DHT22;1158;48.750;9.078;2023-05-13T00:41:34;10.00;99.90
2300;DHT22;1158;48.750;9.078;2023-05-13T00:44:01;10.00;99.90
2300;DHT22;1158;48.750;9.078;2023-05-13T00:46:29;10.00;99.90
2300;DHT22;1158;48.750;9.078;2023-05-13T00:48:57;10.00;99.90
2300;DHT22;1158;48.750;9.078;2023-05-13T00:51:24;10.00;99.90
2300;DHT22;1158;48.750;9.078;2023-05-13T00:53:51;10.00;99.90
2300;DHT22;1158;48.750;9.078;2023-05-13T00:56:18;10.00;99.90
2300;DHT22;1158;48.750;9.078;2023-05-13T00:58:47;10.00;99.90
2300;DHT22;1158;48.750;9.078;2023-05-13T01:01:21;9.90;99.90
2300;DHT22;1158;48.750;9.078;2023-05-13T01:03:55;9.90;99.90
2300;DHT22;1158;48.750;9.078;2023-05-13T01:06:32;9.90;99.90
2300;DHT22;1158;48.750;9.078;2023-05-13T01:09:04;9.90;99.90
2300;DHT22;1158;48.750;9.078;2023-05-13T01:11:36;9.90;99.90
2300;DHT22;1158;48.750;9.078;2023-05-13T01:14:10;9.90;99.90
2300;DHT22;1158;48.750;9.078;2023-05-13T01:16:40;9.90;99.90
2300;DHT22;1158;48.750;9.078;2023-05-13T01:19:21;9.90;99.90
2300;DHT22;1158;48.750;9.078;2023-05-13T01:21:53;9.80;99.90
2300;DHT22;1158;48.750;9.078;2023-05-13T01:24:20;9.80;99.90
2300;DHT22;1158;48.750;9.078;2023-05-13T01:26:47;9.70;99.90
2300;DHT22;1158;48.750;9.078;2023-05-13T01:29:15;9.70;99.90
2300;DHT22;1158;48.750;9.078;2023-05-13T01:31:42;9.70;99.90
2300;DHT22;1158;48.750;9.078;2023-05-13T01:34:10;9.60;99.90
2300;DHT22;1158;48.750;9.078;2023-05-13T01:36:38;9.50;99.90
2300;DHT22;1158;48.750;9.078;2023-05-13T01:39:06;9.50;99.90
2300;DHT22;1158;48.750;9.078;2023-05-13T01:41:33;9.50;99.90
2300;DHT22;1158;48.750;9.078;2023-05-13T01:44:00;9.40;99.90
2300;DHT22;1158;48.750;9.078;2023-05-13T01:46:27;9.40;99.90
2300;DHT22;1158;48.750;9.078;2023-05-13T01:48:54;9.20;99.90
2300;DHT22;1158;48.750;9.078;2023-05-13T01:51:21;9.20;99.90
2300;DHT22;1158;48.750;9.078;2023-05-13T01:53:48;9.00;99.90
2300;DHT22;1158;48.750;9.078;2023-05-13T01:56:16;9.00;99.90
2300;DHT22;1158;48.750;9.078;2023-05-13T01:58:42;8.90;99.90
2300;DHT22;1158;48.750;9.078;2023-05-13T02:01:09;8.90;99.90
2300;DHT22;1158;48.750;9.078;2023-05-13T02:03:36;8.90;99.90
2300;DHT22;1158;48.750;9.078;2023-05-13T02:06:03;8.90;99.90
2300;DHT22;1158;48.750;9.078;2023-05-13T02:08:29;8.90;99.90
2300;DHT22;1158;48.750;9.078;2023-05-13T02:10:56;8.90;99.90
2300;DHT22;1158;48.750;9.078;2023-05-13T02:13:24;8.90;99.90
2300;DHT22;1158;48.750;9.078;2023-05-13T02:15:51;8.90;99.90
2300;DHT22;1158;48.750;9.078;2023-05-13T02:18:18;8.90;99.90
2300;DHT22;1158;48.750;9.078;2023-05-13T02:20:45;8.90;99.90
2300;DHT22;1158;48.750;9.078;2023-05-13T02:23:12;9.00;99.90
2300;DHT22;1158;48.750;9.078;2023-05-13T02:25:40;8.90;99.90
2300;DHT22;1158;48.750;9.078;2023-05-13T02:28:07;8.90;99.90
2300;DHT22;1158;48.750;9.078;2023-05-13T02:30:35;8.90;99.90
2300;DHT22;1158;48.750;9.078;2023-05-13T02:33:02;8.90;99.90
2300;DHT22;1158;48.750;9.078;2023-05-13T02:35:29;8.90;99.90
2300;DHT22;1158;48.750;9.078;2023-05-13T02:37:56;8.90;99.90
2300;DHT22;1158;48.750;9.078;2023-05-13T02:40:23;8.90;99.90
2300;DHT22;1158;48.750;9.078;2023-05-13T02:42:49;8.90;99.90
2300;DHT22;1158;48.750;9.078;2023-05-13T02:45:17;8.90;99.90
2300;DHT22;1158;48.750;9.078;2023-05-13T02:47:45;8.90;99.90
2300;DHT22;1158;48.750;9.078;2023-05-13T02:50:12;8.90;99.90
2300;DHT22;1158;48.750;9.078;2023-05-13T02:52:38;8.80;99.90
2300;DHT22;1158;48.750;9.078;2023-05-13T02:55:06;8.80;99.90
2300;DHT22;1158;48.750;9.078;2023-05-13T02:57:33;8.80;99.90
2300;DHT22;1158;48.750;9.078;2023-05-13T03:00:00;8.80;99.90
2300;DHT22;1158;48.750;9.078;2023-05-13T03:02:28;8.80;99.90
2300;DHT22;1158;48.750;9.078;2023-05-13T03:04:56;8.80;99.90
2300;DHT22;1158;48.750;9.078;2023-05-13T03:07:23;8.80;99.90
2300;DHT22;1158;48.750;9.078;2023-05-13T03:09:50;8.80;99.90
2300;DHT22;1158;48.750;9.078;2023-05-13T03:12:17;8.80;99.90
2300;DHT22;1158;48.750;9.078;2023-05-13T03:14:44;8.80;99.90
2300;DHT22;1158;48.750;9.078;2023-05-13T03:17:11;8.80;99.90
2300;DHT22;1158;48.750;9.078;2023-05-13T03:19:38;8.80;99.90
2300;DHT22;1158;48.750;9.078;2023-05-13T03:22:06;8.80;99.90
2300;DHT22;1158;48.750;9.078;2023-05-13T03:24:32;8.80;99.90
2300;DHT22;1158;48.750;9.078;2023-05-13T03:26:59;8.80;99.90
2300;DHT22;1158;48.750;9.078;2023-05-13T03:29:26;8.80;99.90
2300;DHT22;1158;48.750;9.078;2023-05-13T03:31:53;8.70;99.90
2300;DHT22;1158;48.750;9.078;2023-05-13T03:34:19;8.80;99.90
2300;DHT22;1158;48.750;9.078;2023-05-13T03:36:46;8.80;99.90
2300;DHT22;1158;48.750;9.078;2023-05-13T03:39:14;8.80;99.90
2300;DHT22;1158;48.750;9.078;2023-05-13T03:41:41;8.80;99.90
2300;DHT22;1158;48.750;9.078;2023-05-13T03:44:08;8.80;99.90
2300;DHT22;1158;48.750;9.078;2023-05-13T03:46:35;8.80;99.90
2300;DHT22;1158;48.750;9.078;2023-05-13T03:49:02;8.80;99.90
2300;DHT22;1158;48.750;9.078;2023-05-13T03:51:28;8.80;99.90
2300;DHT22;1158;48.750;9.078;2023-05-13T03:53:55;8.80;99.90
2300;DHT22;1158;48.750;9.078;2023-05-13T03:56:23;8.80;99.90
2300;DHT22;1158;48.750;9.078;2023-05-13T03:58:50;8.80;99.90
2300;DHT22;1158;48.750;9.078;2023-05-13T04:01:17;8.80;99.90
2300;DHT22;1158;48.750;9.078;2023-05-13T04:03:43;8.80;99.90
2300;DHT22;1158;48.750;9.078;2023-05-13T04:06:11;8.70;99.90
2300;DHT22;1158;48.750;9.078;2023-05-13T04:08:39;8.80;99.90
2300;DHT22;1158;48.750;9.078;2023-05-13T04:11:05;8.80;99.90
2300;DHT22;1158;48.750;9.078;2023-05-13T04:13:34;8.80;99.90
2300;DHT22;1158;48.750;9.078;2023-05-13T04:16:01;8.80;99.90
2300;DHT22;1158;48.750;9.078;2023-05-13T04:18:28;8.80;99.90
2300;DHT22;1158;48.750;9.078;2023-05-13T04:20:55;8.80;99.90
2300;DHT22;1158;48.750;9.078;2023-05-13T04:23:22;8.80;99.90
2300;DHT22;1158;48.750;9.078;2023-05-13T04:25:49;8.70;99.90
2300;DHT22;1158;48.750;9.078;2023-05-13T04:28:16;8.70;99.90
2300;DHT22;1158;48.750;9.078;2023-05-13T04:30:44;8.70;99.90
2300;DHT22;1158;48.750;9.078;2023-05-13T04:33:11;8.80;99.90
2300;DHT22;1158;48.750;9.078;2023-05-13T04:35:38;8.70;99.90
2300;DHT22;1158;48.750;9.078;2023-05-13T04:38:04;8.80;99.90
2300;DHT22;1158;48.750;9.078;2023-05-13T04:40:31;8.80;99.90
2300;DHT22;1158;48.750;9.078;2023-05-13T04:42:58;8.80;99.90
2300;DHT22;1158;48.750;9.078;2023-05-13T04:45:25;8.80;99.90
2300;DHT22;1158;48.750;9.078;2023-05-13T04:47:53;8.80;99.90
2300;DHT22;1158;48.750;9.078;2023-05-13T04:50:19;8.90;99.90
2300;DHT22;1158;48.750;9.078;2023-05-13T04:52:46;8.90;99.90
2300;DHT22;1158;48.750;9.078;2023-05-13T04:55:13;8.90;99.90
2300;DHT22;1158;48.750;9.078;2023-05-13T04:57:40;8.90;99.90
2300;DHT22;1158;48.750;9.078;2023-05-13T05:00:07;8.90;99.90
2300;DHT22;1158;48.750;9.078;2023-05-13T05:02:35;8.90;99.90
2300;DHT22;1158;48.750;9.078;2023-05-13T05:05:03;8.90;99.90
2300;DHT22;1158;48.750;9.078;2023-05-13T05:07:30;8.90;99.90
2300;DHT22;1158;48.750;9.078;2023-05-13T05:09:56;9.00;99.90
2300;DHT22;1158;48.750;9.078;2023-05-13T05:12:23;9.00;99.90
2300;DHT22;1158;48.750;9.078;2023-05-13T05:14:50;9.10;99.90
2300;DHT22;1158;48.750;9.078;2023-05-13T05:17:16;9.00;99.90
2300;DHT22;1158;48.750;9.078;2023-05-13T05:19:43;9.00;99.90
2300;DHT22;1158;48.750;9.078;2023-05-13T05:22:11;9.10;99.90
2300;DHT22;1158;48.750;9.078;2023-05-13T05:24:38;9.10;99.90
2300;DHT22;1158;48.750;9.078;2023-05-13T05:27:05;9.00;99.90
2300;DHT22;1158;48.750;9.078;2023-05-13T05:29:31;9.10;99.90
2300;DHT22;1158;48.750;9.078;2023-05-13T05:31:58;9.10;99.90
2300;DHT22;1158;48.750;9.078;2023-05-13T05:34:25;9.10;99.90
2300;DHT22;1158;48.750;9.078;2023-05-13T05:36:51;9.20;99.90
2300;DHT22;1158;48.750;9.078;2023-05-13T05:39:20;9.30;99.90
2300;DHT22;1158;48.750;9.078;2023-05-13T05:41:47;9.40;99.90
2300;DHT22;1158;48.750;9.078;2023-05-13T05:44:14;9.40;99.90
2300;DHT22;1158;48.750;9.078;2023-05-13T05:46:40;9.40;99.90
2300;DHT22;1158;48.750;9.078;2023-05-13T05:49:07;9.50;99.90
2300;DHT22;1158;48.750;9.078;2023-05-13T05:51:34;9.60;99.90
2300;DHT22;1158;48.750;9.078;2023-05-13T05:54:00;9.60;99.90
2300;DHT22;1158;48.750;9.078;2023-05-13T05:56:28;9.70;99.90
2300;DHT22;1158;48.750;9.078;2023-05-13T05:58:55;9.70;99.90
2300;DHT22;1158;48.750;9.078;2023-05-13T06:01:22;9.80;99.90
2300;DHT22;1158;48.750;9.078;2023-05-13T06:03:48;9.80;99.90
2300;DHT22;1158;48.750;9.078;2023-05-13T06:06:15;9.70;99.90
2300;DHT22;1158;48.750;9.078;2023-05-13T06:08:42;9.70;99.90
2300;DHT22;1158;48.750;9.078;2023-05-13T06:11:08;9.80;99.90
2300;DHT22;1158;48.750;9.078;2023-05-13T06:13:36;9.90;99.90
2300;DHT22;1158;48.750;9.078;2023-05-13T06:16:04;9.90;99.90
2300;DHT22;1158;48.750;9.078;2023-05-13T06:18:31;10.00;99.90
2300;DHT22;1158;48.750;9.078;2023-05-13T06:20:57;10.00;99.90
2300;DHT22;1158;48.750;9.078;2023-05-13T06:23:24;10.10;99.90
2300;DHT22;1158;48.750;9.078;2023-05-13T06:25:51;10.10;99.90
2300;DHT22;1158;48.750;9.078;2023-05-13T06:28:18;10.10;99.90
2300;DHT22;1158;48.750;9.078;2023-05-13T06:30:46;10.20;99.90
2300;DHT22;1158;48.750;9.078;2023-05-13T06:33:13;10.20;99.90
2300;DHT22;1158;48.750;9.078;2023-05-13T06:35:39;10.20;99.90
2300;DHT22;1158;48.750;9.078;2023-05-13T06:38:06;10.20;99.90
2300;DHT22;1158;48.750;9.078;2023-05-13T06:40:33;10.20;99.90
2300;DHT22;1158;48.750;9.078;2023-05-13T06:42:59;10.10;99.90
2300;DHT22;1158;48.750;9.078;2023-05-13T06:45:26;10.40;99.90
2300;DHT22;1158;48.750;9.078;2023-05-13T06:47:54;10.50;99.90
2300;DHT22;1158;48.750;9.078;2023-05-13T06:50:21;10.60;99.90
2300;DHT22;1158;48.750;9.078;2023-05-13T06:52:48;10.70;99.90
2300;DHT22;1158;48.750;9.078;2023-05-13T06:55:14;11.10;99.90
2300;DHT22;1158;48.750;9.078;2023-05-13T06:57:43;11.30;99.90
2300;DHT22;1158;48.750;9.078;2023-05-13T07:00:12;11.20;99.90
2300;DHT22;1158;48.750;9.078;2023-05-13T07:02:38;11.40;99.90
2300;DHT22;1158;48.750;9.078;2023-05-13T07:05:07;11.50;99.90
2300;DHT22;1158;48.750;9.078;2023-05-13T07:07:34;11.70;99.90
2300;DHT22;1158;48.750;9.078;2023-05-13T07:10:01;11.70;99.90
2300;DHT22;1158;48.750;9.078;2023-05-13T07:12:28;11.50;99.90
2300;DHT22;1158;48.750;9.078;2023-05-13T07:14:55;11.60;99.90
2300;DHT22;1158;48.750;9.078;2023-05-13T07:17:21;11.60;99.90
2300;DHT22;1158;48.750;9.078;2023-05-13T07:19:48;11.70;99.90
2300;DHT22;1158;48.750;9.078;2023-05-13T07:22:16;11.80;99.90
2300;DHT22;1158;48.750;9.078;2023-05-13T07:24:42;11.80;99.90
2300;DHT22;1158;48.750;9.078;2023-05-13T07:27:09;11.90;99.90
2300;DHT22;1158;48.750;9.078;2023-05-13T07:29:36;12.00;99.90
2300;DHT22;1158;48.750;9.078;2023-05-13T07:32:03;12.10;99.90
2300;DHT22;1158;48.750;9.078;2023-05-13T07:34:30;12.20;99.90
2300;DHT22;1158;48.750;9.078;2023-05-13T07:36:57;12.10;99.90
2300;DHT22;1158;48.750;9.078;2023-05-13T07:39:25;12.20;99.90
2300;DHT22;1158;48.750;9.078;2023-05-13T07:41:52;12.20;99.90
2300;DHT22;1158;48.750;9.078;2023-05-13T07:44:19;12.10;99.90
2300;DHT22;1158;48.750;9.078;2023-05-13T07:46:46;12.30;99.90
2300;DHT22;1158;48.750;9.078;2023-05-13T07:49:13;12.40;99.90
2300;DHT22;1158;48.750;9.078;2023-05-13T07:51:40;12.50;99.90
2300;DHT22;1158;48.750;9.078;2023-05-13T07:54:08;12.60;99.90
2300;DHT22;1158;48.750;9.078;2023-05-13T07:56:36;12.80;99.90
2300;DHT22;1158;48.750;9.078;2023-05-13T07:59:03;13.10;99.90
2300;DHT22;1158;48.750;9.078;2023-05-13T08:01:30;13.10;99.90
2300;DHT22;1158;48.750;9.078;2023-05-13T08:03:57;13.00;99.90
2300;DHT22;1158;48.750;9.078;2023-05-13T08:06:23;13.00;99.90
2300;DHT22;1158;48.750;9.078;2023-05-13T08:08:50;13.30;99.90
2300;DHT22;1158;48.750;9.078;2023-05-13T08:11:17;13.50;99.90
2300;DHT22;1158;48.750;9.078;2023-05-13T08:13:45;13.60;99.90
2300;DHT22;1158;48.750;9.078;2023-05-13T08:16:11;13.40;99.90
2300;DHT22;1158;48.750;9.078;2023-05-13T08:18:38;13.50;99.90
2300;DHT22;1158;48.750;9.078;2023-05-13T08:21:05;13.70;99.90
2300;DHT22;1158;48.750;9.078;2023-05-13T08:23:31;13.70;99.90
2300;DHT22;1158;48.750;9.078;2023-05-13T08:25:58;13.40;99.90
2300;DHT22;1158;48.750;9.078;2023-05-13T08:28:25;13.30;99.90
2300;DHT22;1158;48.750;9.078;2023-05-13T08:30:53;13.40;99.90
2300;DHT22;1158;48.750;9.078;2023-05-13T08:33:20;13.20;99.90
2300;DHT22;1158;48.750;9.078;2023-05-13T08:35:46;13.10;99.90
2300;DHT22;1158;48.750;9.078;2023-05-13T08:38:13;13.20;99.90
2300;DHT22;1158;48.750;9.078;2023-05-13T08:40:41;13.40;99.90
2300;DHT22;1158;48.750;9.078;2023-05-13T08:43:09;13.50;99.90
2300;DHT22;1158;48.750;9.078;2023-05-13T08:45:37;13.40;99.90
2300;DHT22;1158;48.750;9.078;2023-05-13T08:48:06;13.10;99.90
2300;DHT22;1158;48.750;9.078;2023-05-13T08:50:34;13.10;99.90
2300;DHT22;1158;48.750;9.078;2023-05-13T08:53:01;13.10;99.90
2300;DHT22;1158;48.750;9.078;2023-05-13T08:55:29;13.60;99.90
2300;DHT22;1158;48.750;9.078;2023-05-13T08:57:55;13.80;99.90
2300;DHT22;1158;48.750;9.078;2023-05-13T09:00:22;13.80;99.90
2300;DHT22;1158;48.750;9.078;2023-05-13T09:02:49;13.90;99.90
2300;DHT22;1158;48.750;9.078;2023-05-13T09:05:17;14.10;99.90
2300;DHT22;1158;48.750;9.078;2023-05-13T09:07:45;14.00;99.90
2300;DHT22;1158;48.750;9.078;2023-05-13T09:10:11;13.90;99.90
2300;DHT22;1158;48.750;9.078;2023-05-13T09:12:42;13.80;99.90
2300;DHT22;1158;48.750;9.078;2023-05-13T09:15:11;13.70;99.90
2300;DHT22;1158;48.750;9.078;2023-05-13T09:17:38;13.70;99.90
2300;DHT22;1158;48.750;9.078;2023-05-13T09:20:07;13.90;99.90
2300;DHT22;1158;48.750;9.078;2023-05-13T09:22:40;14.00;99.90
2300;DHT22;1158;48.750;9.078;2023-05-13T09:25:10;14.00;99.90
2300;DHT22;1158;48.750;9.078;2023-05-13T09:27:38;14.10;99.90
2300;DHT22;1158;48.750;9.078;2023-05-13T09:30:06;14.30;99.90
2300;DHT22;1158;48.750;9.078;2023-05-13T09:32:33;14.70;99.90
2300;DHT22;1158;48.750;9.078;2023-05-13T09:35:08;15.00;99.90
2300;DHT22;1158;48.750;9.078;2023-05-13T09:37:36;15.10;99.90
2300;DHT22;1158;48.750;9.078;2023-05-13T09:40:04;14.90;99.90
2300;DHT22;1158;48.750;9.078;2023-05-13T09:42:30;14.70;99.90
2300;DHT22;1158;48.750;9.078;2023-05-13T09:45:03;14.50;99.90
2300;DHT22;1158;48.750;9.078;2023-05-13T09:47:31;14.20;99.90
2300;DHT22;1158;48.750;9.078;2023-05-13T09:50:01;14.40;99.90
2300;DHT22;1158;48.750;9.078;2023-05-13T09:52:29;14.50;99.90
2300;DHT22;1158;48.750;9.078;2023-05-13T09:54:58;14.60;99.90
2300;DHT22;1158;48.750;9.078;2023-05-13T09:57:26;14.80;99.90
2300;DHT22;1158;48.750;9.078;2023-05-13T09:59:56;14.60;99.90
2300;DHT22;1158;48.750;9.078;2023-05-13T10:02:23;14.40;99.90
2300;DHT22;1158;48.750;9.078;2023-05-13T10:04:51;14.30;99.90
2300;DHT22;1158;48.750;9.078;2023-05-13T10:07:18;14.20;99.90
2300;DHT22;1158;48.750;9.078;2023-05-13T10:09:50;14.30;99.90
2300;DHT22;1158;48.750;9.078;2023-05-13T10:12:19;14.30;99.90
2300;DHT22;1158;48.750;9.078;2023-05-13T10:14:51;14.50;99.90
2300;DHT22;1158;48.750;9.078;2023-05-13T10:17:19;14.50;99.90
2300;DHT22;1158;48.750;9.078;2023-05-13T10:19:48;14.60;99.90
2300;DHT22;1158;48.750;9.078;2023-05-13T10:22:17;14.40;99.90
2300;DHT22;1158;48.750;9.078;2023-05-13T10:24:46;14.30;99.90
2300;DHT22;1158;48.750;9.078;2023-05-13T10:27:13;14.50;99.90
2300;DHT22;1158;48.750;9.078;2023-05-13T10:29:42;14.50;99.90
2300;DHT22;1158;48.750;9.078;2023-05-13T10:32:10;14.50;99.90
2300;DHT22;1158;48.750;9.078;2023-05-13T10:34:38;14.70;99.90
2300;DHT22;1158;48.750;9.078;2023-05-13T10:37:22;15.00;99.90
2300;DHT22;1158;48.750;9.078;2023-05-13T10:40:05;15.30;99.90
2300;DHT22;1158;48.750;9.078;2023-05-13T10:42:41;15.50;99.90
2300;DHT22;1158;48.750;9.078;2023-05-13T10:45:10;15.40;99.90
2300;DHT22;1158;48.750;9.078;2023-05-13T10:47:37;15.60;99.90
2300;DHT22;1158;48.750;9.078;2023-05-13T10:50:05;15.30;99.90
2300;DHT22;1158;48.750;9.078;2023-05-13T10:52:42;15.80;99.90
2300;DHT22;1158;48.750;9.078;2023-05-13T10:55:16;15.30;99.90
2300;DHT22;1158;48.750;9.078;2023-05-13T10:58:07;14.90;99.90
2300;DHT22;1158;48.750;9.078;2023-05-13T11:00:37;15.00;99.90
2300;DHT22;1158;48.750;9.078;2023-05-13T11:03:09;15.00;99.90
2300;DHT22;1158;48.750;9.078;2023-05-13T11:05:38;14.80;99.90
2300;DHT22;1158;48.750;9.078;2023-05-13T11:08:05;14.50;99.90
2300;DHT22;1158;48.750;9.078;2023-05-13T11:10:32;14.40;99.90
2300;DHT22;1158;48.750;9.078;2023-05-13T11:13:07;14.30;99.90
2300;DHT22;1158;48.750;9.078;2023-05-13T11:15:44;14.10;99.90
2300;DHT22;1158;48.750;9.078;2023-05-13T11:18:11;14.00;99.90
2300;DHT22;1158;48.750;9.078;2023-05-13T11:20:38;14.00;99.90
2300;DHT22;1158;48.750;9.078;2023-05-13T11:23:05;14.20;99.90
2300;DHT22;1158;48.750;9.078;2023-05-13T11:25:33;14.10;99.90
2300;DHT22;1158;48.750;9.078;2023-05-13T11:27:59;14.30;99.90
2300;DHT22;1158;48.750;9.078;2023-05-13T11:30:26;14.80;99.90
2300;DHT22;1158;48.750;9.078;2023-05-13T11:32:55;15.40;99.90
2300;DHT22;1158;48.750;9.078;2023-05-13T11:35:23;15.70;99.90
2300;DHT22;1158;48.750;9.078;2023-05-13T11:37:50;15.80;99.90
2300;DHT22;1158;48.750;9.078;2023-05-13T11:40:21;15.50;99.90
2300;DHT22;1158;48.750;9.078;2023-05-13T11:42:48;14.90;99.90
2300;DHT22;1158;48.750;9.078;2023-05-13T11:45:16;14.60;99.90
2300;DHT22;1158;48.750;9.078;2023-05-13T11:47:43;14.30;99.90
2300;DHT22;1158;48.750;9.078;2023-05-13T11:50:20;14.30;99.90
2300;DHT22;1158;48.750;9.078;2023-05-13T11:52:50;14.20;99.90
2300;DHT22;1158;48.750;9.078;2023-05-13T11:55:24;14.30;99.90
2300;DHT22;1158;48.750;9.078;2023-05-13T11:57:52;14.10;99.90
2300;DHT22;1158;48.750;9.078;2023-05-13T12:00:23;14.20;99.90
2300;DHT22;1158;48.750;9.078;2023-05-13T12:02:51;14.20;99.90
2300;DHT22;1158;48.750;9.078;2023-05-13T12:05:19;14.30;99.90
2300;DHT22;1158;48.750;9.078;2023-05-13T12:07:46;14.40;99.90
2300;DHT22;1158;48.750;9.078;2023-05-13T12:10:13;14.60;99.90
2300;DHT22;1158;48.750;9.078;2023-05-13T12:12:42;14.70;99.90
2300;DHT22;1158;48.750;9.078;2023-05-13T12:15:11;14.80;99.90
2300;DHT22;1158;48.750;9.078;2023-05-13T12:17:38;15.10;99.90
2300;DHT22;1158;48.750;9.078;2023-05-13T12:20:10;15.30;99.90
2300;DHT22;1158;48.750;9.078;2023-05-13T12:22:52;15.20;99.90
2300;DHT22;1158;48.750;9.078;2023-05-13T12:25:40;15.20;99.90
2300;DHT22;1158;48.750;9.078;2023-05-13T12:28:12;15.10;99.90
2300;DHT22;1158;48.750;9.078;2023-05-13T12:30:41;15.20;99.90
2300;DHT22;1158;48.750;9.078;2023-05-13T12:33:13;15.10;99.90
2300;DHT22;1158;48.750;9.078;2023-05-13T12:35:40;15.40;99.90
2300;DHT22;1158;48.750;9.078;2023-05-13T12:38:14;15.60;99.90
2300;DHT22;1158;48.750;9.078;2023-05-13T12:40:41;15.90;99.90
2300;DHT22;1158;48.750;9.078;2023-05-13T12:43:10;15.70;99.90
2300;DHT22;1158;48.750;9.078;2023-05-13T12:45:39;15.40;99.90
2300;DHT22;1158;48.750;9.078;2023-05-13T12:48:06;15.20;99.90
2300;DHT22;1158;48.750;9.078;2023-05-13T12:50:33;15.30;99.90
2300;DHT22;1158;48.750;9.078;2023-05-13T12:53:00;15.60;99.90
2300;DHT22;1158;48.750;9.078;2023-05-13T12:55:28;15.90;99.90
2300;DHT22;1158;48.750;9.078;2023-05-13T12:57:57;16.10;99.90
2300;DHT22;1158;48.750;9.078;2023-05-13T13:00:24;16.00;99.90
2300;DHT22;1158;48.750;9.078;2023-05-13T13:02:51;16.90;99.90
2300;DHT22;1158;48.750;9.078;2023-05-13T13:05:18;17.60;99.90
2300;DHT22;1158;48.750;9.078;2023-05-13T13:07:45;17.90;99.90
2300;DHT22;1158;48.750;9.078;2023-05-13T13:10:12;17.80;99.90
2300;DHT22;1158;48.750;9.078;2023-05-13T13:12:41;17.80;99.90
2300;DHT22;1158;48.750;9.078;2023-05-13T13:15:08;17.20;99.90
2300;DHT22;1158;48.750;9.078;2023-05-13T13:17:35;17.30;99.90
2300;DHT22;1158;48.750;9.078;2023-05-13T13:20:03;17.50;99.90
2300;DHT22;1158;48.750;9.078;2023-05-13T13:22:31;17.40;99.90
2300;DHT22;1158;48.750;9.078;2023-05-13T13:24:58;17.10;99.90
2300;DHT22;1158;48.750;9.078;2023-05-13T13:27:25;16.90;99.90
2300;DHT22;1158;48.750;9.078;2023-05-13T13:29:53;16.80;99.90
2300;DHT22;1158;48.750;9.078;2023-05-13T13:32:20;17.00;99.90
2300;DHT22;1158;48.750;9.078;2023-05-13T13:34:46;17.40;99.90
2300;DHT22;1158;48.750;9.078;2023-05-13T13:37:13;17.80;99.90
2300;DHT22;1158;48.750;9.078;2023-05-13T13:39:40;17.60;99.90
2300;DHT22;1158;48.750;9.078;2023-05-13T13:42:06;18.20;99.90
2300;DHT22;1158;48.750;9.078;2023-05-13T13:44:33;18.10;99.90
2300;DHT22;1158;48.750;9.078;2023-05-13T13:47:02;17.50;99.90
2300;DHT22;1158;48.750;9.078;2023-05-13T13:49:29;16.50;99.90
2300;DHT22;1158;48.750;9.078;2023-05-13T13:51:56;15.60;99.90
2300;DHT22;1158;48.750;9.078;2023-05-13T13:54:22;15.30;99.90
2300;DHT22;1158;48.750;9.078;2023-05-13T13:56:49;15.30;99.90
2300;DHT22;1158;48.750;9.078;2023-05-13T13:59:16;15.50;99.90
2300;DHT22;1158;48.750;9.078;2023-05-13T14:01:43;15.50;99.90
2300;DHT22;1158;48.750;9.078;2023-05-13T14:04:12;15.90;99.90
2300;DHT22;1158;48.750;9.078;2023-05-13T14:06:39;16.40;99.90
2300;DHT22;1158;48.750;9.078;2023-05-13T14:09:07;16.90;99.90
2300;DHT22;1158;48.750;9.078;2023-05-13T14:11:34;16.80;99.90
2300;DHT22;1158;48.750;9.078;2023-05-13T14:14:05;16.90;99.90
2300;DHT22;1158;48.750;9.078;2023-05-13T14:16:32;16.90;99.90
2300;DHT22;1158;48.750;9.078;2023-05-13T14:18:59;16.70;99.90
2300;DHT22;1158;48.750;9.078;2023-05-13T14:21:27;16.50;99.90
2300;DHT22;1158;48.750;9.078;2023-05-13T14:23:54;15.80;99.90
2300;DHT22;1158;48.750;9.078;2023-05-13T14:26:20;15.60;99.90
2300;DHT22;1158;48.750;9.078;2023-05-13T14:28:47;15.60;99.90
2300;DHT22;1158;48.750;9.078;2023-05-13T14:31:14;15.50;99.90
2300;DHT22;1158;48.750;9.078;2023-05-13T14:33:41;15.60;99.90
2300;DHT22;1158;48.750;9.078;2023-05-13T14:36:07;15.70;99.90
2300;DHT22;1158;48.750;9.078;2023-05-13T14:38:37;15.80;99.90
2300;DHT22;1158;48.750;9.078;2023-05-13T14:41:04;15.90;99.90
2300;DHT22;1158;48.750;9.078;2023-05-13T14:43:31;16.30;99.90
2300;DHT22;1158;48.750;9.078;2023-05-13T14:45:58;16.30;99.90
2300;DHT22;1158;48.750;9.078;2023-05-13T14:48:24;16.30;99.90
2300;DHT22;1158;48.750;9.078;2023-05-13T14:50:51;16.30;99.90
2300;DHT22;1158;48.750;9.078;2023-05-13T14:53:18;16.60;99.90
2300;DHT22;1158;48.750;9.078;2023-05-13T14:55:46;17.00;99.90
2300;DHT22;1158;48.750;9.078;2023-05-13T14:58:13;17.00;99.90
2300;DHT22;1158;48.750;9.078;2023-05-13T15:00:40;16.70;99.90
2300;DHT22;1158;48.750;9.078;2023-05-13T15:03:06;17.20;99.90
2300;DHT22;1158;48.750;9.078;2023-05-13T15:05:33;18.80;99.90
2300;DHT22;1158;48.750;9.078;2023-05-13T15:08:00;20.10;99.90
2300;DHT22;1158;48.750;9.078;2023-05-13T15:10:26;21.00;99.90
2300;DHT22;1158;48.750;9.078;2023-05-13T15:12:54;21.20;99.90
2300;DHT22;1158;48.750;9.078;2023-05-13T15:15:23;20.40;99.90
2300;DHT22;1158;48.750;9.078;2023-05-13T15:17:50;19.70;99.90
2300;DHT22;1158;48.750;9.078;2023-05-13T15:20:17;18.90;99.90
2300;DHT22;1158;48.750;9.078;2023-05-13T15:22:43;18.00;99.90
2300;DHT22;1158;48.750;9.078;2023-05-13T15:25:10;17.50;99.90
2300;DHT22;1158;48.750;9.078;2023-05-13T15:27:37;17.30;99.90
2300;DHT22;1158;48.750;9.078;2023-05-13T15:30:06;16.70;99.90
2300;DHT22;1158;48.750;9.078;2023-05-13T15:32:33;16.30;99.90
2300;DHT22;1158;48.750;9.078;2023-05-13T15:35:00;15.90;99.90
2300;DHT22;1158;48.750;9.078;2023-05-13T15:37:26;16.10;99.90
2300;DHT22;1158;48.750;9.078;2023-05-13T15:39:53;16.30;99.90
2300;DHT22;1158;48.750;9.078;2023-05-13T15:42:20;16.20;99.90
2300;DHT22;1158;48.750;9.078;2023-05-13T15:44:47;16.30;99.90
2300;DHT22;1158;48.750;9.078;2023-05-13T15:47:15;16.10;99.90
2300;DHT22;1158;48.750;9.078;2023-05-13T15:49:42;16.30;99.90
2300;DHT22;1158;48.750;9.078;2023-05-13T15:52:08;16.30;99.90
2300;DHT22;1158;48.750;9.078;2023-05-13T15:54:35;16.60;99.90
2300;DHT22;1158;48.750;9.078;2023-05-13T15:57:02;16.70;99.90
2300;DHT22;1158;48.750;9.078;2023-05-13T15:59:29;16.90;99.90
2300;DHT22;1158;48.750;9.078;2023-05-13T16:01:55;17.10;99.90
2300;DHT22;1158;48.750;9.078;2023-05-13T16:04:23;16.90;99.90
2300;DHT22;1158;48.750;9.078;2023-05-13T16:06:50;16.50;99.90
2300;DHT22;1158;48.750;9.078;2023-05-13T16:09:17;15.80;99.90
2300;DHT22;1158;48.750;9.078;2023-05-13T16:11:44;15.30;99.90